Time;durP1;ratioP1;P1;durP2;ratioP2;P2;SDS_P1;SDS_P2;PMS_P1;PMS_P2;Temp;Humidity;BMP_temperature;BMP_pressure;BME280_temperature;BME280_humidity;BME280_pressure;Samples;Min_cycle;Max_cycle;Signal;HPM_P1;HPM_P2
2020/12/08 00:02:11;;;;;;;14.93;9.38;;;;;;;;;;5052724;28;20228;-52
2020/12/08 00:04:40;;;;;;;14.50;9.05;;;;;;;;;;5053240;28;20233;-49
2020/12/08 00:07:10;;;;;;;17.48;11.70;;;;;;;;;;5054432;28;20585;-57
2020/12/08 00:09:46;;;;;;;16.77;10.90;;;;;;;;;;5053345;28;20201;-54
2020/12/08 00:12:16;;;;;;;13.63;10.05;;;;;;;;;;5053633;28;20209;-53
2020/12/08 00:14:42;;;;;;;15.65;10.15;;;;;;;;;;5053464;28;20216;-58
2020/12/08 00:17:10;;;;;;;15.00;9.85;;;;;;;;;;5053999;28;20244;-53
2020/12/08 00:22:47;;;;;;;15.60;10.90;;;;;;;;;;5053589;28;20200;-53
2020/12/08 00:25:25;;;;;;;22.85;11.18;;;;;;;;;;5050153;28;20217;-52
2020/12/08 00:28:14;;;;;;;17.90;11.15;;;;;;;;;;5053533;28;20198;-55
2020/12/08 00:30:42;;;;;;;19.17;10.85;;;;;;;;;;5073954;28;20211;-54
2020/12/08 00:33:21;;;;;;;17.23;11.85;;;;;;;;;;5073789;28;20612;-52
2020/12/08 00:36:10;;;;;;;19.00;11.50;;;;;;;;;;5072520;28;20263;-52
2020/12/08 00:38:36;;;;;;;16.80;10.85;;;;;;;;;;5072829;28;20255;-52
2020/12/08 00:43:56;;;;;;;19.60;12.23;;;;;;;;;;5065714;28;20233;-47
2020/12/08 00:46:30;;;;;;;15.90;11.75;;;;;;;;;;5074801;28;20200;-54
2020/12/08 00:48:58;;;;;;;16.65;12.20;;;;;;;;;;5073901;28;20457;-52
2020/12/08 00:54:56;;;;;;;15.95;11.00;;;;;;;;;;5038058;28;20193;-52
2020/12/08 00:57:38;;;;;;;17.15;12.57;;;;;;;;;;5071774;28;20273;-57
2020/12/08 01:00:33;;;;;;;17.30;11.45;;;;;;;;;;5053702;28;20205;-51
2020/12/08 01:03:30;;;;;;;19.73;12.88;;;;;;;;;;5072195;28;20552;-49
2020/12/08 01:06:16;;;;;;;16.58;10.90;;;;;;;;;;5071515;28;20212;-58
2020/12/08 01:09:09;;;;;;;19.10;11.10;;;;;;;;;;5052437;28;20231;-51
2020/12/08 01:11:42;;;;;;;17.73;11.95;;;;;;;;;;5053726;28;20212;-56
2020/12/08 01:14:12;;;;;;;15.35;10.70;;;;;;;;;;5070493;28;20239;-54
2020/12/08 01:16:56;;;;;;;19.63;11.82;;;;;;;;;;5064768;28;20208;-52
2020/12/08 01:19:33;;;;;;;17.92;13.30;;;;;;;;;;5052955;28;20205;-55
2020/12/08 01:22:14;;;;;;;21.40;12.23;;;;;;;;;;5051925;28;20471;-45
2020/12/08 01:27:45;;;;;;;20.95;13.40;;;;;;;;;;5054282;28;20187;-55
2020/12/08 01:33:02;;;;;;;21.58;13.10;;;;;;;;;;5071365;28;20262;-54
2020/12/08 01:35:33;;;;;;;20.08;13.13;;;;;;;;;;5072398;28;20261;-54
2020/12/08 01:38:07;;;;;;;21.20;13.52;;;;;;;;;;5068293;28;20224;-56
2020/12/08 01:41:10;;;;;;;19.98;13.57;;;;;;;;;;5068804;28;20268;-51
2020/12/08 01:43:44;;;;;;;20.33;12.77;;;;;;;;;;5066881;28;20302;-59
2020/12/08 01:46:14;;;;;;;19.38;12.35;;;;;;;;;;5066915;28;20246;-50
2020/12/08 01:48:50;;;;;;;21.48;13.40;;;;;;;;;;5072955;28;20212;-56
2020/12/08 01:54:05;;;;;;;21.27;13.52;;;;;;;;;;5075064;28;20334;-51
2020/12/08 01:56:42;;;;;;;19.55;12.45;;;;;;;;;;5072735;28;20239;-51
2020/12/08 01:59:25;;;;;;;20.83;14.05;;;;;;;;;;5074874;28;20205;-52
2020/12/08 02:05:10;;;;;;;22.95;13.20;;;;;;;;;;5063519;28;20283;-56
2020/12/08 02:08:06;;;;;;;18.98;14.52;;;;;;;;;;5074581;28;20199;-56
2020/12/08 02:10:34;;;;;;;23.88;15.57;;;;;;;;;;5074485;28;20200;-53
2020/12/08 02:13:24;;;;;;;20.98;14.80;;;;;;;;;;5074724;28;20289;-56
2020/12/08 02:16:02;;;;;;;19.70;13.55;;;;;;;;;;5073384;28;20202;-56
2020/12/08 02:18:30;;;;;;;25.88;15.02;;;;;;;;;;5072881;28;20255;-55
2020/12/08 02:21:07;;;;;;;22.67;14.40;;;;;;;;;;5071693;28;20259;-51
2020/12/08 02:29:05;;;;;;;20.03;13.70;;;;;;;;;;5072880;28;20200;-53
2020/12/08 02:31:36;;;;;;;20.73;13.07;;;;;;;;;;5074973;28;20215;-57
2020/12/08 02:37:08;;;;;;;22.02;14.80;;;;;;;;;;5072334;28;20223;-52
2020/12/08 02:39:39;;;;;;;25.27;14.55;;;;;;;;;;5074090;28;20214;-55
2020/12/08 02:42:16;;;;;;;20.55;14.30;;;;;;;;;;5073077;28;20217;-55
2020/12/08 02:44:44;;;;;;;19.98;14.88;;;;;;;;;;5051808;28;20233;-53
2020/12/08 02:47:15;;;;;;;23.98;15.40;;;;;;;;;;5056757;28;20241;-50
2020/12/08 02:50:35;;;;;;;23.63;14.88;;;;;;;;;;5072475;28;20223;-56
2020/12/08 02:53:02;;;;;;;23.05;15.82;;;;;;;;;;5052675;28;20205;-54
2020/12/08 02:55:53;;;;;;;22.02;14.40;;;;;;;;;;5076108;28;20194;-53
2020/12/08 03:01:25;;;;;;;21.60;14.60;;;;;;;;;;5073485;28;20235;-52
2020/12/08 03:03:55;;;;;;;20.98;14.88;;;;;;;;;;5072998;28;20221;-55
2020/12/08 03:09:42;;;;;;;22.20;14.27;;;;;;;;;;5027347;28;20243;-52
2020/12/08 03:12:14;;;;;;;25.65;16.35;;;;;;;;;;5073755;28;20243;-49
2020/12/08 03:15:14;;;;;;;19.60;15.05;;;;;;;;;;5072465;28;20319;-52
2020/12/08 03:18:14;;;;;;;25.35;17.20;;;;;;;;;;5054217;28;20213;-57
2020/12/08 03:20:42;;;;;;;20.38;14.00;;;;;;;;;;5071310;28;20223;-55
2020/12/08 03:23:24;;;;;;;25.42;15.18;;;;;;;;;;5074439;28;20212;-54
2020/12/08 03:26:04;;;;;;;21.50;15.48;;;;;;;;;;5073117;28;20251;-50
2020/12/08 03:28:49;;;;;;;24.00;15.18;;;;;;;;;;5074470;28;20201;-52
2020/12/08 03:31:35;;;;;;;21.77;14.48;;;;;;;;;;5073562;28;20229;-54
2020/12/08 03:34:03;;;;;;;22.25;16.25;;;;;;;;;;5072388;28;20201;-51
2020/12/08 03:42:27;;;;;;;21.98;14.93;;;;;;;;;;5073769;28;20457;-51
2020/12/08 03:44:55;;;;;;;24.95;15.70;;;;;;;;;;5074346;28;20358;-51
2020/12/08 03:47:27;;;;;;;23.25;15.85;;;;;;;;;;5074415;28;20207;-54
2020/12/08 03:49:54;;;;;;;20.40;13.90;;;;;;;;;;5064893;28;20284;-51
2020/12/08 03:54:49;;;;;;;20.50;14.67;;;;;;;;;;5072823;28;20254;-49
2020/12/08 03:57:19;;;;;;;21.27;14.82;;;;;;;;;;5071306;28;20447;-51
2020/12/08 03:59:47;;;;;;;22.90;16.55;;;;;;;;;;5070183;28;20209;-52
2020/12/08 04:02:15;;;;;;;22.70;14.57;;;;;;;;;;5073031;28;20211;-53
2020/12/08 04:07:53;;;;;;;22.48;15.32;;;;;;;;;;5048415;28;20221;-47
2020/12/08 04:10:21;;;;;;;22.50;15.35;;;;;;;;;;5073151;28;20208;-52
2020/12/08 04:12:57;;;;;;;21.45;15.30;;;;;;;;;;5073362;28;20217;-48
2020/12/08 04:15:24;;;;;;;27.17;16.92;;;;;;;;;;5073615;28;20220;-49
2020/12/08 04:17:59;;;;;;;21.40;15.43;;;;;;;;;;5073421;28;20216;-50
2020/12/08 04:20:48;;;;;;;22.73;14.88;;;;;;;;;;5073480;28;20216;-49
2020/12/08 04:23:17;;;;;;;17.33;14.30;;;;;;;;;;5071439;28;20237;-56
2020/12/08 04:25:48;;;;;;;23.40;15.52;;;;;;;;;;5076354;28;20197;-55
2020/12/08 04:28:25;;;;;;;20.75;15.85;;;;;;;;;;5075792;28;20197;-54
2020/12/08 04:31:02;;;;;;;22.00;14.05;;;;;;;;;;5073571;28;20219;-56
2020/12/08 04:33:32;;;;;;;23.75;16.38;;;;;;;;;;5072873;28;20196;-53
2020/12/08 04:35:59;;;;;;;23.85;15.20;;;;;;;;;;5073058;28;20197;-50
2020/12/08 04:38:32;;;;;;;20.50;14.35;;;;;;;;;;5055180;28;20231;-55
2020/12/08 04:41:00;;;;;;;19.60;13.82;;;;;;;;;;5064745;28;20278;-57
2020/12/08 04:43:28;;;;;;;20.83;14.07;;;;;;;;;;5072989;28;20240;-48
2020/12/08 04:45:55;;;;;;;21.02;13.95;;;;;;;;;;5072946;28;20213;-46
2020/12/08 04:48:27;;;;;;;21.48;14.68;;;;;;;;;;5073697;28;20243;-49
2020/12/08 04:51:01;;;;;;;22.08;14.48;;;;;;;;;;5074975;28;20199;-50
2020/12/08 04:53:27;;;;;;;19.02;13.75;;;;;;;;;;5073797;28;20223;-58
2020/12/08 04:55:54;;;;;;;19.25;13.80;;;;;;;;;;5072633;28;20384;-48
2020/12/08 04:58:25;;;;;;;20.00;14.05;;;;;;;;;;5075676;28;20224;-56
2020/12/08 05:00:53;;;;;;;21.95;14.27;;;;;;;;;;5059569;28;20244;-52
2020/12/08 05:03:43;;;;;;;21.33;14.35;;;;;;;;;;5069826;28;20237;-54
2020/12/08 05:06:40;;;;;;;22.77;14.05;;;;;;;;;;5073147;28;20289;-51
2020/12/08 05:09:18;;;;;;;19.52;14.68;;;;;;;;;;5071892;28;20201;-56
2020/12/08 05:11:56;;;;;;;22.63;14.00;;;;;;;;;;5070279;28;20240;-54
2020/12/08 05:14:53;;;;;;;23.85;14.35;;;;;;;;;;5072794;28;20214;-58
2020/12/08 05:17:48;;;;;;;18.92;13.25;;;;;;;;;;5070772;28;20201;-52
2020/12/08 05:20:19;;;;;;;25.23;13.23;;;;;;;;;;5074455;28;20205;-48
2020/12/08 05:28:36;;;;;;;20.98;13.95;;;;;;;;;;5052944;28;20206;-55
2020/12/08 05:36:26;;;;;;;19.10;13.73;;;;;;;;;;5073125;28;20251;-49
2020/12/08 05:39:18;;;;;;;21.27;14.63;;;;;;;;;;5074020;28;20193;-58
2020/12/08 05:41:45;;;;;;;26.00;13.10;;;;;;;;;;5070242;28;20240;-54
2020/12/08 05:44:33;;;;;;;20.42;14.02;;;;;;;;;;5074484;28;20212;-52
2020/12/08 05:47:26;;;;;;;20.10;14.55;;;;;;;;;;5073266;28;20180;-56
2020/12/08 05:50:15;;;;;;;19.63;12.50;;;;;;;;;;5071494;28;20209;-57
2020/12/08 05:53:08;;;;;;;18.08;12.73;;;;;;;;;;5010733;28;20198;-54
2020/12/08 05:55:51;;;;;;;19.83;13.77;;;;;;;;;;5072342;28;20205;-58
2020/12/08 05:58:24;;;;;;;20.95;14.10;;;;;;;;;;5068741;28;20363;-49
2020/12/08 06:04:09;;;;;;;18.35;12.32;;;;;;;;;;5071018;28;20243;-54
2020/12/08 06:12:48;;;;;;;16.20;12.07;;;;;;;;;;5068787;28;20216;-54
2020/12/08 06:15:38;;;;;;;15.27;10.52;;;;;;;;;;5072452;28;20212;-56
2020/12/08 06:20:52;;;;;;;20.60;13.88;;;;;;;;;;5071099;28;20271;-53
2020/12/08 06:23:23;;;;;;;16.98;11.52;;;;;;;;;;5072572;28;20287;-57
2020/12/08 06:26:20;;;;;;;19.90;11.82;;;;;;;;;;5063733;28;20202;-59
2020/12/08 06:28:51;;;;;;;16.77;11.60;;;;;;;;;;5069521;28;20274;-59
2020/12/08 06:32:05;;;;;;;17.40;10.48;;;;;;;;;;5051131;28;20226;-55
2020/12/08 06:34:35;;;;;;;17.90;11.68;;;;;;;;;;5062081;28;20205;-54
2020/12/08 06:37:16;;;;;;;16.95;11.32;;;;;;;;;;5075163;28;20251;-55
2020/12/08 06:46:00;;;;;;;16.92;11.45;;;;;;;;;;5093796;28;20304;-51
2020/12/08 06:51:44;;;;;;;17.00;11.48;;;;;;;;;;5089536;28;20208;-53
2020/12/08 06:54:17;;;;;;;15.40;10.88;;;;;;;;;;5091886;28;20228;-51
2020/12/08 07:03:23;;;;;;;15.95;11.13;;;;;;;;;;5008067;28;20202;-57
2020/12/08 07:06:10;;;;;;;19.52;10.70;;;;;;;;;;5096359;28;20195;-58
2020/12/08 07:08:43;;;;;;;13.82;10.18;;;;;;;;;;5092451;28;20204;-52
2020/12/08 07:11:17;;;;;;;15.68;10.70;;;;;;;;;;5076131;28;20189;-58
2020/12/08 07:13:58;;;;;;;13.02;10.57;;;;;;;;;;5076745;28;20208;-53
2020/12/08 07:16:28;;;;;;;18.17;12.50;;;;;;;;;;5087396;28;20207;-56
2020/12/08 07:22:08;;;;;;;17.38;12.00;;;;;;;;;;5090865;28;20260;-54
2020/12/08 07:24:46;;;;;;;12.25;10.85;;;;;;;;;;5074925;28;20236;-53
2020/12/08 07:27:19;;;;;;;18.25;12.15;;;;;;;;;;5093576;28;20343;-55
2020/12/08 07:29:45;;;;;;;17.73;12.20;;;;;;;;;;5090924;28;20192;-54
2020/12/08 07:32:28;;;;;;;16.30;11.52;;;;;;;;;;5096532;28;20200;-54
2020/12/08 07:35:01;;;;;;;14.63;11.05;;;;;;;;;;5082932;28;20215;-54
2020/12/08 07:37:36;;;;;;;14.82;10.57;;;;;;;;;;5091757;28;20304;-47
2020/12/08 07:40:19;;;;;;;16.35;11.38;;;;;;;;;;5096841;28;20222;-53
2020/12/08 07:42:53;;;;;;;13.05;9.80;;;;;;;;;;5083294;28;20204;-57
2020/12/08 07:45:21;;;;;;;15.35;9.85;;;;;;;;;;5093546;28;20304;-56
2020/12/08 07:47:52;;;;;;;14.00;9.93;;;;;;;;;;5076356;28;20223;-51
2020/12/08 07:50:27;;;;;;;13.57;9.20;;;;;;;;;;5075095;28;20264;-54
2020/12/08 07:52:58;;;;;;;12.85;9.27;;;;;;;;;;5079959;28;20272;-53
2020/12/08 07:55:30;;;;;;;12.73;8.90;;;;;;;;;;5094478;28;20204;-51
2020/12/08 08:00:44;;;;;;;18.25;9.32;;;;;;;;;;5089709;28;20201;-54
2020/12/08 08:03:11;;;;;;;13.00;9.20;;;;;;;;;;5087198;28;20174;-55
2020/12/08 08:05:45;;;;;;;17.10;9.70;;;;;;;;;;5069230;28;20206;-53
2020/12/08 08:08:13;;;;;;;13.15;9.43;;;;;;;;;;5071348;28;20193;-55
2020/12/08 08:10:59;;;;;;;13.02;9.95;;;;;;;;;;5072323;28;20218;-56
2020/12/08 08:14:04;;;;;;;14.95;10.02;;;;;;;;;;5073197;28;20193;-57
2020/12/08 08:19:10;;;;;;;18.13;11.10;;;;;;;;;;5071048;28;20217;-57
2020/12/08 08:29:57;;;;;;;13.20;9.50;;;;;;;;;;5073685;28;20384;-57
2020/12/08 08:32:28;;;;;;;10.05;7.75;;;;;;;;;;5059051;28;20261;-52
2020/12/08 08:35:12;;;;;;;13.07;8.65;;;;;;;;;;5053623;28;20197;-47
2020/12/08 08:37:50;;;;;;;11.73;9.00;;;;;;;;;;5053617;28;20360;-63
2020/12/08 08:40:19;;;;;;;12.98;8.90;;;;;;;;;;5046007;28;20480;-50
2020/12/08 08:43:06;;;;;;;13.63;9.93;;;;;;;;;;5053280;28;20205;-56
2020/12/08 08:54:52;;;;;;;13.52;10.32;;;;;;;;;;5069699;28;20278;-52
2020/12/08 08:57:32;;;;;;;14.20;9.88;;;;;;;;;;5071885;28;20201;-51
2020/12/08 09:00:26;;;;;;;12.65;9.98;;;;;;;;;;5060856;28;20253;-52
2020/12/08 09:03:25;;;;;;;16.02;12.32;;;;;;;;;;5072770;28;20237;-47
2020/12/08 09:06:05;;;;;;;13.82;9.10;;;;;;;;;;5062278;28;20262;-57
2020/12/08 09:08:44;;;;;;;13.70;10.32;;;;;;;;;;5068393;28;20224;-53
2020/12/08 09:11:23;;;;;;;13.70;9.70;;;;;;;;;;5073387;28;20319;-54
2020/12/08 09:17:14;;;;;;;13.20;9.35;;;;;;;;;;4990555;28;20188;-49
2020/12/08 09:19:43;;;;;;;13.48;10.02;;;;;;;;;;5059562;28;20223;-55
2020/12/08 09:26:08;;;;;;;;;;;;;;;;;;;;;
2020/12/08 09:31:45;;;;;;;16.83;10.05;;;;;;;;;;5071860;28;20196;-57
2020/12/08 09:34:26;;;;;;;13.30;9.60;;;;;;;;;;5072564;28;20213;-59
2020/12/08 09:36:58;;;;;;;17.20;9.35;;;;;;;;;;5072337;28;20208;-48
2020/12/08 09:39:26;;;;;;;12.80;8.75;;;;;;;;;;5071878;28;20194;-56
2020/12/08 09:45:23;;;;;;;13.25;9.98;;;;;;;;;;5072263;28;20244;-54
2020/12/08 09:48:05;;;;;;;14.73;10.10;;;;;;;;;;5072810;28;20206;-51
2020/12/08 09:50:38;;;;;;;16.60;12.00;;;;;;;;;;5066578;28;20213;-58
2020/12/08 09:56:37;;;;;;;15.07;9.90;;;;;;;;;;5073127;28;20212;-56
2020/12/08 10:02:20;;;;;;;12.30;9.43;;;;;;;;;;5071607;28;20211;-55
2020/12/08 10:08:11;;;;;;;14.02;8.85;;;;;;;;;;5026052;28;20236;-60
2020/12/08 10:16:16;;;;;;;13.07;8.95;;;;;;;;;;5046812;28;20242;-54
2020/12/08 10:21:40;;;;;;;12.38;9.40;;;;;;;;;;4974074;28;20317;-53
2020/12/08 10:24:08;;;;;;;16.02;9.88;;;;;;;;;;5053657;28;20234;-56
2020/12/08 10:26:37;;;;;;;13.32;9.23;;;;;;;;;;5053936;28;20203;-55
2020/12/08 10:38:43;;;;;;;16.70;9.50;;;;;;;;;;5052115;28;20238;-56
2020/12/08 10:41:40;;;;;;;12.13;9.07;;;;;;;;;;5052459;28;20274;-53
2020/12/08 10:44:23;;;;;;;13.57;9.00;;;;;;;;;;5059246;28;20301;-52
2020/12/08 10:46:51;;;;;;;15.93;9.70;;;;;;;;;;5074505;28;20223;-50
2020/12/08 10:49:25;;;;;;;14.88;10.60;;;;;;;;;;5075597;28;20197;-57
2020/12/08 10:51:53;;;;;;;17.55;9.88;;;;;;;;;;5071836;28;20363;-55
2020/12/08 10:54:57;;;;;;;15.52;11.15;;;;;;;;;;5075283;28;20521;-57
2020/12/08 10:57:25;;;;;;;17.33;9.93;;;;;;;;;;5074255;28;20200;-55
2020/12/08 11:03:03;;;;;;;12.95;9.90;;;;;;;;;;5074488;28;20202;-58
2020/12/08 11:05:37;;;;;;;14.35;9.27;;;;;;;;;;5074211;28;20233;-57
2020/12/08 11:08:20;;;;;;;12.50;9.40;;;;;;;;;;5066180;28;20244;-52
2020/12/08 11:10:47;;;;;;;13.23;9.00;;;;;;;;;;5076067;28;20204;-59
2020/12/08 11:13:17;;;;;;;13.85;10.13;;;;;;;;;;5074968;28;20289;-55
2020/12/08 11:15:48;;;;;;;14.63;9.70;;;;;;;;;;5074470;28;20216;-52
2020/12/08 11:18:15;;;;;;;12.30;8.43;;;;;;;;;;5074980;28;20220;-55
2020/12/08 11:20:44;;;;;;;12.23;8.25;;;;;;;;;;5073458;28;20236;-57
2020/12/08 11:23:11;;;;;;;14.20;10.05;;;;;;;;;;5075150;28;20251;-58
2020/12/08 11:25:48;;;;;;;12.55;8.00;;;;;;;;;;5072324;28;20295;-53
2020/12/08 11:28:17;;;;;;;10.90;7.10;;;;;;;;;;5071916;28;20188;-57
2020/12/08 11:30:52;;;;;;;8.80;7.18;;;;;;;;;;5076003;28;20207;-53
2020/12/08 11:33:19;;;;;;;12.13;7.93;;;;;;;;;;5066954;28;20192;-56
2020/12/08 11:36:04;;;;;;;8.43;6.38;;;;;;;;;;5075344;28;20213;-49
2020/12/08 11:38:33;;;;;;;7.97;5.90;;;;;;;;;;5074211;28;20204;-47
2020/12/08 11:40:59;;;;;;;8.35;6.53;;;;;;;;;;5073709;28;20213;-53
2020/12/08 11:43:27;;;;;;;8.23;5.28;;;;;;;;;;5074472;28;20292;-54
2020/12/08 11:45:55;;;;;;;9.50;6.90;;;;;;;;;;5073414;28;20245;-55
2020/12/08 11:48:23;;;;;;;9.68;6.18;;;;;;;;;;5069759;28;20194;-57
2020/12/08 11:50:52;;;;;;;9.45;6.22;;;;;;;;;;5053903;28;20318;-52
2020/12/08 11:53:24;;;;;;;13.48;7.72;;;;;;;;;;5059668;28;20206;-50
2020/12/08 11:55:57;;;;;;;8.77;5.93;;;;;;;;;;5073217;28;20204;-54
2020/12/08 11:58:34;;;;;;;9.07;5.93;;;;;;;;;;5070842;28;20200;-52
2020/12/08 12:01:03;;;;;;;7.75;4.82;;;;;;;;;;5072638;28;20203;-57
2020/12/08 12:03:34;;;;;;;9.15;6.22;;;;;;;;;;5073261;28;20194;-55
2020/12/08 12:09:12;;;;;;;9.80;6.20;;;;;;;;;;5069559;28;20467;-55
2020/12/08 12:15:30;;;;;;;9.80;7.00;;;;;;;;;;5069683;28;20176;-60
2020/12/08 12:18:17;;;;;;;10.32;7.38;;;;;;;;;;5069650;28;20205;-54
2020/12/08 12:21:00;;;;;;;8.75;6.43;;;;;;;;;;5061359;28;20192;-56
2020/12/08 12:23:32;;;;;;;9.48;6.57;;;;;;;;;;5058422;28;20211;-49
2020/12/08 12:35:00;;;;;;;9.10;6.22;;;;;;;;;;5061438;28;20273;-53
2020/12/08 12:38:11;;;;;;;9.90;5.65;;;;;;;;;;5072732;28;20190;-57
2020/12/08 12:41:03;;;;;;;7.10;5.72;;;;;;;;;;5051823;28;20233;-57
2020/12/08 12:43:41;;;;;;;9.07;7.10;;;;;;;;;;5070586;28;20219;-59
2020/12/08 12:49:06;;;;;;;7.85;5.40;;;;;;;;;;5054706;28;20202;-58
2020/12/08 12:51:36;;;;;;;8.73;6.25;;;;;;;;;;5071347;28;20215;-46
2020/12/08 12:54:14;;;;;;;16.80;7.30;;;;;;;;;;5038096;28;20199;-59
2020/12/08 12:59:41;;;;;;;9.20;6.78;;;;;;;;;;5070562;28;20203;-60
2020/12/08 13:02:22;;;;;;;12.55;9.00;;;;;;;;;;5070096;28;20238;-57
2020/12/08 13:04:51;;;;;;;8.43;6.22;;;;;;;;;;5066948;28;20222;-57
2020/12/08 13:07:20;;;;;;;10.20;6.82;;;;;;;;;;5049263;28;20210;-53
2020/12/08 13:09:48;;;;;;;8.25;6.50;;;;;;;;;;5067329;28;20267;-54
2020/12/08 13:12:35;;;;;;;9.65;8.00;;;;;;;;;;5073038;28;20262;-48
2020/12/08 13:15:07;;;;;;;7.93;5.68;;;;;;;;;;5071406;28;20198;-54
2020/12/08 13:17:35;;;;;;;7.82;5.78;;;;;;;;;;5052248;28;20261;-52
2020/12/08 13:20:09;;;;;;;8.50;6.15;;;;;;;;;;5061991;28;20239;-53
2020/12/08 13:25:32;;;;;;;9.40;7.13;;;;;;;;;;5074904;28;20243;-47
2020/12/08 13:28:19;;;;;;;11.10;6.38;;;;;;;;;;5071463;28;20288;-50
2020/12/08 13:30:47;;;;;;;8.52;5.60;;;;;;;;;;5071302;28;20209;-54
2020/12/08 13:33:16;;;;;;;7.70;5.50;;;;;;;;;;5073559;28;20252;-57
2020/12/08 13:35:46;;;;;;;9.68;7.57;;;;;;;;;;5068140;28;20761;-57
2020/12/08 13:38:21;;;;;;;8.80;6.05;;;;;;;;;;5063513;28;20198;-55
2020/12/08 13:40:50;;;;;;;12.13;8.63;;;;;;;;;;5059314;28;20250;-53
2020/12/08 13:43:27;;;;;;;11.60;7.30;;;;;;;;;;5073154;28;20257;-51
2020/12/08 13:45:58;;;;;;;8.23;6.47;;;;;;;;;;5077571;28;20261;-57
2020/12/08 13:48:27;;;;;;;9.20;6.63;;;;;;;;;;5076370;28;20230;-57
2020/12/08 13:51:09;;;;;;;9.02;6.20;;;;;;;;;;5065562;28;20210;-58
2020/12/08 13:53:48;;;;;;;6.78;5.90;;;;;;;;;;5055551;28;20206;-53
2020/12/08 13:56:21;;;;;;;7.85;5.80;;;;;;;;;;5073415;28;20288;-56
2020/12/08 13:58:50;;;;;;;9.13;6.13;;;;;;;;;;5075187;28;20257;-55
2020/12/08 14:01:31;;;;;;;7.85;6.30;;;;;;;;;;5074217;28;20248;-55
2020/12/08 14:04:29;;;;;;;8.85;6.25;;;;;;;;;;5074632;28;20287;-51
2020/12/08 14:06:58;;;;;;;8.57;5.55;;;;;;;;;;5074786;28;20239;-56
2020/12/08 14:09:25;;;;;;;8.82;5.60;;;;;;;;;;5073444;28;20297;-53
2020/12/08 14:12:00;;;;;;;8.63;5.75;;;;;;;;;;5076040;28;20203;-60
2020/12/08 14:14:31;;;;;;;9.00;6.55;;;;;;;;;;5076504;28;20220;-55
2020/12/08 14:19:46;;;;;;;11.70;5.95;;;;;;;;;;5074765;28;20196;-58
2020/12/08 14:22:23;;;;;;;7.53;5.43;;;;;;;;;;5075953;28;20202;-58
2020/12/08 14:25:12;;;;;;;11.30;7.30;;;;;;;;;;5071067;28;20237;-50
2020/12/08 14:27:49;;;;;;;15.48;6.22;;;;;;;;;;5068419;28;20378;-51
2020/12/08 14:30:25;;;;;;;5.72;4.60;;;;;;;;;;5072186;28;20270;-60
2020/12/08 14:32:58;;;;;;;9.95;6.20;;;;;;;;;;5061644;28;20256;-46
2020/12/08 14:35:58;;;;;;;9.45;6.10;;;;;;;;;;5065844;28;20194;-48
2020/12/08 14:38:27;;;;;;;9.13;6.70;;;;;;;;;;5054187;28;20206;-55
2020/12/08 14:40:55;;;;;;;11.30;6.75;;;;;;;;;;5063613;28;20192;-50
2020/12/08 14:43:33;;;;;;;9.65;7.28;;;;;;;;;;5074719;28;20229;-56
2020/12/08 14:46:13;;;;;;;7.70;5.95;;;;;;;;;;5074917;28;20210;-53
2020/12/08 14:51:37;;;;;;;9.57;6.65;;;;;;;;;;5073976;28;20206;-60
2020/12/08 14:54:26;;;;;;;8.85;6.40;;;;;;;;;;5073978;28;20226;-55
2020/12/08 15:00:15;;;;;;;10.25;6.05;;;;;;;;;;5080148;28;20213;-47
2020/12/08 15:02:57;;;;;;;8.85;5.82;;;;;;;;;;5076016;28;20193;-55
2020/12/08 15:05:54;;;;;;;11.13;7.05;;;;;;;;;;5068467;28;20222;-53
2020/12/08 15:08:27;;;;;;;7.53;5.97;;;;;;;;;;5060898;28;20464;-56
2020/12/08 15:10:55;;;;;;;8.13;5.65;;;;;;;;;;5066606;28;20206;-53
2020/12/08 15:13:23;;;;;;;8.55;6.30;;;;;;;;;;5060795;28;20221;-55
2020/12/08 15:16:03;;;;;;;9.43;5.38;;;;;;;;;;5054683;28;20217;-54
2020/12/08 15:18:50;;;;;;;8.82;6.63;;;;;;;;;;5042444;28;20283;-57
2020/12/08 15:21:25;;;;;;;10.18;6.85;;;;;;;;;;5056176;28;20198;-54
2020/12/08 15:23:57;;;;;;;10.68;5.80;;;;;;;;;;5042915;28;20203;-55
2020/12/08 15:26:37;;;;;;;9.10;7.07;;;;;;;;;;5047112;28;20244;-55
2020/12/08 15:35:05;;;;;;;10.25;6.90;;;;;;;;;;5065286;28;20294;-56
2020/12/08 15:41:02;;;;;;;11.15;6.28;;;;;;;;;;5061397;28;20224;-53
2020/12/08 15:43:33;;;;;;;9.68;7.05;;;;;;;;;;5070201;28;20209;-58
2020/12/08 15:49:32;;;;;;;12.07;6.93;;;;;;;;;;5062764;28;20223;-55
2020/12/08 15:54:51;;;;;;;12.10;7.70;;;;;;;;;;5064711;28;20467;-58
2020/12/08 15:57:20;;;;;;;10.77;7.50;;;;;;;;;;5068679;28;20193;-51
2020/12/08 15:59:55;;;;;;;9.95;6.47;;;;;;;;;;5064127;28;20228;-56
2020/12/08 16:02:27;;;;;;;13.75;7.15;;;;;;;;;;5072096;28;20237;-58
2020/12/08 16:05:06;;;;;;;10.68;7.95;;;;;;;;;;5072396;28;20221;-53
2020/12/08 16:07:43;;;;;;;14.55;7.00;;;;;;;;;;5062738;28;20311;-57
2020/12/08 16:12:59;;;;;;;12.23;7.47;;;;;;;;;;5065240;28;20236;-55
2020/12/08 16:15:27;;;;;;;11.15;7.97;;;;;;;;;;5069534;28;20323;-58
2020/12/08 16:23:46;;;;;;;11.25;7.28;;;;;;;;;;5050328;28;20547;-55
2020/12/08 16:26:46;;;;;;;10.00;7.05;;;;;;;;;;5047574;28;20264;-57
2020/12/08 16:34:07;;;;;;;11.43;8.47;;;;;;;;;;5071525;28;20495;-51
2020/12/08 16:36:50;;;;;;;25.30;7.63;;;;;;;;;;5068274;28;20207;-56
2020/12/08 16:39:34;;;;;;;12.07;8.23;;;;;;;;;;5060678;28;20200;-55
2020/12/08 16:42:08;;;;;;;15.48;8.48;;;;;;;;;;5050155;28;20232;-52
2020/12/08 16:44:43;;;;;;;9.90;7.40;;;;;;;;;;5051504;28;20443;-59
2020/12/08 16:47:20;;;;;;;10.00;7.05;;;;;;;;;;5052878;28;20224;-51
2020/12/08 16:49:51;;;;;;;12.38;8.10;;;;;;;;;;5048584;28;20237;-58
2020/12/08 16:52:46;;;;;;;10.73;8.55;;;;;;;;;;5052705;28;20230;-58
2020/12/08 16:55:13;;;;;;;14.80;9.82;;;;;;;;;;5048707;28;20199;-58
2020/12/08 17:03:22;;;;;;;11.93;8.55;;;;;;;;;;5041619;28;20205;-55
2020/12/08 17:06:01;;;;;;;11.80;8.25;;;;;;;;;;5042529;28;20533;-49
2020/12/08 17:11:24;;;;;;;13.30;8.93;;;;;;;;;;5039730;28;20219;-59
2020/12/08 17:13:59;;;;;;;11.15;8.30;;;;;;;;;;5037732;28;20203;-59
2020/12/08 17:16:40;;;;;;;12.43;8.55;;;;;;;;;;5047410;28;20200;-57
2020/12/08 17:19:43;;;;;;;13.20;9.18;;;;;;;;;;5045430;28;20200;-59
2020/12/08 17:22:42;;;;;;;10.80;7.95;;;;;;;;;;5050109;28;20245;-57
2020/12/08 17:28:21;;;;;;;13.40;9.82;;;;;;;;;;5040238;28;20212;-55
2020/12/08 17:31:08;;;;;;;13.02;8.68;;;;;;;;;;5042122;28;20222;-53
2020/12/08 17:33:35;;;;;;;13.15;9.18;;;;;;;;;;5046985;28;20212;-57
2020/12/08 17:36:39;;;;;;;12.35;9.02;;;;;;;;;;5050454;28;20316;-55
2020/12/08 17:42:25;;;;;;;15.15;10.07;;;;;;;;;;5026900;28;20249;-55
2020/12/08 17:45:00;;;;;;;10.27;8.02;;;;;;;;;;5027038;28;20223;-55
2020/12/08 17:47:40;;;;;;;10.75;8.77;;;;;;;;;;5064523;28;20189;-58
2020/12/08 17:53:24;;;;;;;14.70;9.95;;;;;;;;;;5034496;28;20423;-55
2020/12/08 17:55:52;;;;;;;11.18;8.98;;;;;;;;;;5048241;28;20238;-57
2020/12/08 17:58:21;;;;;;;12.38;8.55;;;;;;;;;;5050540;28;20220;-57
2020/12/08 18:01:06;;;;;;;11.50;9.27;;;;;;;;;;5051471;28;20275;-55
2020/12/08 18:03:37;;;;;;;13.95;9.35;;;;;;;;;;5034047;28;20213;-57
2020/12/08 18:06:07;;;;;;;10.02;7.80;;;;;;;;;;5033899;28;20226;-51
2020/12/08 18:11:50;;;;;;;12.45;8.07;;;;;;;;;;5010237;28;20429;-60
2020/12/08 18:20:40;;;;;;;11.93;8.88;;;;;;;;;;4996219;28;20198;-58
2020/12/08 18:23:17;;;;;;;13.77;7.75;;;;;;;;;;4991855;28;20231;-61
2020/12/08 18:32:30;;;;;;;13.55;9.55;;;;;;;;;;5058907;28;20220;-52
2020/12/08 18:35:11;;;;;;;12.73;9.35;;;;;;;;;;5066873;28;20345;-56
2020/12/08 18:43:37;;;;;;;19.27;9.93;;;;;;;;;;5027577;28;20206;-54
2020/12/08 18:46:05;;;;;;;15.23;11.68;;;;;;;;;;5049803;28;20308;-52
2020/12/08 18:51:43;;;;;;;17.98;11.85;;;;;;;;;;5048436;28;20183;-50
2020/12/08 19:00:10;;;;;;;15.93;11.02;;;;;;;;;;5052470;28;20220;-54
2020/12/08 19:08:59;;;;;;;17.08;10.85;;;;;;;;;;5032328;28;20214;-55
2020/12/08 19:14:39;;;;;;;19.58;13.00;;;;;;;;;;4993087;28;20223;-48
2020/12/08 19:17:10;;;;;;;18.95;12.95;;;;;;;;;;4999552;28;20263;-50
2020/12/08 19:19:37;;;;;;;16.75;11.80;;;;;;;;;;5054738;28;20244;-57
2020/12/08 19:22:24;;;;;;;17.10;12.80;;;;;;;;;;5055875;28;20219;-59
2020/12/08 19:27:56;;;;;;;17.45;12.38;;;;;;;;;;5063620;28;20288;-57
2020/12/08 19:30:36;;;;;;;17.75;13.13;;;;;;;;;;5055733;28;20266;-56
2020/12/08 19:33:15;;;;;;;15.57;10.75;;;;;;;;;;5071837;28;20224;-58
2020/12/08 19:35:57;;;;;;;14.45;10.65;;;;;;;;;;5038134;28;20216;-53
2020/12/08 19:38:28;;;;;;;15.02;9.98;;;;;;;;;;5068027;28;20201;-50
2020/12/08 19:41:00;;;;;;;16.85;12.68;;;;;;;;;;5075204;28;20217;-57
2020/12/08 19:43:58;;;;;;;15.85;11.43;;;;;;;;;;5064290;28;20245;-58
2020/12/08 19:49:36;;;;;;;17.38;11.80;;;;;;;;;;5058796;28;20204;-51
2020/12/08 19:52:26;;;;;;;18.10;11.75;;;;;;;;;;5071750;28;20231;-58
2020/12/08 19:57:59;;;;;;;13.75;10.65;;;;;;;;;;5042366;28;20224;-58
2020/12/08 20:03:16;;;;;;;16.87;11.17;;;;;;;;;;5087397;28;20237;-46
2020/12/08 20:06:12;;;;;;;16.77;10.32;;;;;;;;;;5082970;28;20527;-53
2020/12/08 20:08:44;;;;;;;12.23;9.40;;;;;;;;;;5087467;28;20205;-60